Latest Coastal Weather Observations for Coles Point

IDS60701

Issued at 2:41 pm CST Saturday 25 June 2016 (issued every 10 minutes, with the page automatically refreshed every 10 minutes)

About coastal observations | Map of coastal stations | Coastal observations for SA | Marine services | Other Formats
Station Details ID: 018191 Name: COLES POINT Lat: -34.37 Lon: 135.37 Height: 28.0 m
Data from the previous 72 hours. | See also: Recent months at Coles Point
Date/Time
CST
Temp
°C
Wind Pressure Rain since
9am
mm
Weather Cloud Vis
km
Sea
Height
m
Swell
Dir  Spd
kts
Gust
kts
hPa Trend Height
m
Period
s
Dir
25/02:30pm 14.1 NW 9 13 1020.5 - 0.0 - - - - - - -
25/02:00pm 14.3 NW 9 13 1020.9 - 0.0 - - - - - - -
25/01:30pm 14.2 NW 9 12 1021.4 - 0.0 - - - - - - -
25/01:00pm 13.8 N 7 10 1021.8 - 0.0 - - - - - - -
25/12:30pm 13.6 NNE 8 11 1022.2 - 0.0 - - - - - - -
25/12:00pm 13.6 NNE 9 13 1022.9 - 0.0 - - - - - - -
25/11:30am 12.5 NE 7 9 1023.3 - 0.0 - - - - - - -
25/11:00am 10.3 NE 7 8 1023.7 - 0.0 - - - - - - -
25/10:30am 8.7 NE 7 8 1024.0 - 0.0 - - - - - - -
25/10:00am 7.3 NE 10 11 1024.0 - 0.0 - - - - - - -
25/09:30am 6.5 NE 11 12 1023.8 - 0.0 - - - - - - -
25/09:00am 5.4 NE 11 13 1023.8 - 0.2 - - - - - - -
25/08:30am 4.8 NE 11 12 1023.8 - 0.2 - - - - - - -
25/08:00am 4.0 NE 12 12 1023.7 - 0.2 - - - - - - -
25/07:30am 4.1 NE 12 13 1023.6 - 0.2 - - - - - - -
25/07:00am 4.3 NE 12 13 1023.5 - 0.2 - - - - - - -
25/06:30am 4.8 NE 11 12 1023.3 - 0.2 - - - - - - -
25/06:00am 5.2 NE 11 12 1023.3 - 0.2 - - - - - - -
25/05:30am 5.5 NE 11 12 1023.0 - 0.2 - - - - - - -
25/05:00am 5.4 NE 11 11 1023.0 - 0.2 - - - - - - -
25/04:30am 5.7 NE 10 11 1023.0 - 0.0 - - - - - - -
25/04:00am 6.1 NE 10 10 1023.0 - 0.0 - - - - - - -
25/03:30am 5.5 NE 10 10 1023.0 - 0.0 - - - - - - -
25/03:00am 5.6 NE 9 10 1023.2 - 0.0 - - - - - - -
25/02:30am 5.9 NE 6 8 1023.4 - 0.0 - - - - - - -
25/02:00am 5.2 ENE 3 5 1023.5 - 0.0 - - - - - - -
25/01:30am 6.1 ENE 8 9 1023.5 - 0.0 - - - - - - -
25/01:00am 7.4 NE 8 9 1023.5 - 0.0 - - - - - - -
25/12:30am 7.8 NNE 7 8 1023.5 - 0.0 - - - - - - -
25/12:00am 7.4 NNE 6 6 1023.4 - 0.0 - - - - - - -
 
Date/Time
CST
Temp
°C
Wind Pressure Rain since
9am
mm
Weather Cloud Vis
km
Sea
Height
m
Swell
Dir  Spd
kts
Gust
kts
hPa Trend Height
m
Period
s
Dir
24/11:30pm 8.5 NNE 6 7 1023.3 - 0.0 - - - - - - -
24/11:00pm 8.6 NNE 5 6 1023.4 - 0.0 - - - - - - -
24/10:30pm 8.9 NNE 6 7 1023.3 - 0.0 - - - - - - -
24/10:00pm 9.2 ESE 4 5 1023.4 - 0.0 - - - - - - -
24/09:30pm 9.2 ESE 4 5 1023.5 - 0.0 - - - - - - -
24/09:00pm 8.6 SSE 3 6 1023.4 - 0.0 - - - - - - -
24/08:30pm 7.8 CALM 0 2 1023.3 - 0.0 - - - - - - -
24/08:00pm 8.3 CALM 0 0 1023.2 - 0.0 - - - - - - -
24/07:30pm 10.6 SSE 3 4 1022.9 - 0.0 - - - - - - -
24/07:00pm 11.1 SSE 3 5 1022.7 - 0.0 - - - - - - -
24/06:30pm 11.1 SSE 5 7 1022.3 - 0.0 - - - - - - -
24/06:00pm 11.5 SW 4 6 1022.0 - 0.0 - - - - - - -
24/05:30pm 11.4 S 4 6 1021.7 - 0.0 - - - - - - -
24/05:00pm 11.6 WSW 8 11 1021.3 - 0.0 - - - - - - -
24/04:30pm 12.2 SW 6 8 1020.9 - 0.0 - - - - - - -
24/04:00pm 12.3 SW 9 13 1020.6 - 0.0 - - - - - - -
24/03:30pm 12.7 SW 9 13 1020.2 - 0.0 - - - - - - -
24/03:00pm 12.8 SW 8 10 1020.0 - 0.0 - - - - - - -
24/02:30pm 12.9 SSW 8 12 1019.7 - 0.0 - - - - - - -
24/02:00pm 12.9 SSW 10 14 1019.6 - 0.0 - - - - - - -
24/01:30pm 12.9 SW 12 15 1019.5 - 0.0 - - - - - - -
24/01:00pm 13.0 SW 10 16 1019.5 - 0.0 - - - - - - -
24/12:30pm 12.7 SW 11 15 1019.7 - 0.0 - - - - - - -
24/12:00pm 12.4 SSW 15 21 1019.6 - 0.0 - - - - - - -
24/11:30am 12.4 SW 14 19 1019.7 - 0.0 - - - - - - -
24/11:00am 13.2 SW 16 21 1019.4 - 0.0 - - - - - - -
24/10:30am 12.9 SW 16 20 1019.2 - 0.0 - - - - - - -
24/10:00am 12.6 SW 17 24 1018.8 - 0.0 - - - - - - -
24/09:30am 12.2 SW 18 23 1018.3 - 0.0 - - - - - - -
24/09:00am 11.7 SW 17 22 1017.7 - 6.2 - - - - - - -
24/08:30am 10.9 SW 18 22 1017.1 - 6.2 - - - - - - -
24/08:00am 10.8 SW 18 24 1016.6 - 6.2 - - - - - - -
24/07:30am 10.5 SW 22 31 1016.2 - 6.2 - - - - - - -
24/07:00am 11.2 SW 18 24 1015.3 - 6.2 - - - - - - -
24/06:30am 10.8 SW 21 25 1015.1 - 6.2 - - - - - - -
24/06:24am 10.8 SW 21 26 1014.9 - 6.2 - - - - - - -
24/06:00am 10.9 WSW 18 23 1014.4 - 6.2 - - - - - - -
24/05:30am 10.9 WSW 20 29 1014.0 - 6.2 - - - - - - -
24/05:04am 10.9 WSW 21 31 1013.7 - 6.2 - - - - - - -
24/05:00am 10.7 WSW 19 25 1013.6 - 6.2 - - - - - - -
24/04:30am 9.6 SW 23 34 1013.4 - 6.2 - - - - - - -
24/04:24am 10.6 SW 22 34 1013.4 - 5.8 - - - - - - -
24/04:00am 9.9 WSW 20 29 1013.1 - 5.8 - - - - - - -
24/03:39am 11.1 SW 22 33 1012.9 - 5.6 - - - - - - -
24/03:30am 11.3 SW 19 26 1012.7 - 5.6 - - - - - - -
24/03:00am 11.4 WSW 22 28 1012.5 - 5.6 - - - - - - -
24/02:30am 11.4 SW 23 30 1011.8 - 5.6 - - - - - - -
24/02:00am 11.3 SW 27 35 1011.2 - 5.6 - - - - - - -
24/01:30am 10.8 SW 19 27 1010.7 - 5.6 - - - - - - -
24/01:11am 10.5 SW 25 35 1010.7 - 5.6 - - - - - - -
24/01:00am 10.1 SW 25 33 1010.5 - 5.6 - - - - - - -
24/12:33am 9.2 WSW 29 50 1010.6 - 5.2 - - - - - - -
24/12:30am 9.6 WSW 28 50 1010.5 - 5.0 - - - - - - -
24/12:29am 10.7 WSW 26 50 1010.4 - 5.0 - - - - - - -
24/12:27am 11.5 WSW 25 36 1010.3 - 5.0 - - - - - - -
24/12:00am 10.8 WSW 22 31 1010.1 - 5.0 Recent precip. - - - - - -
 
Date/Time
CST
Temp
°C
Wind Pressure Rain since
9am
mm
Weather Cloud Vis
km
Sea
Height
m
Swell
Dir  Spd
kts
Gust
kts
hPa Trend Height
m
Period
s
Dir
23/11:33pm 11.5 WSW 22 34 1009.9 - 5.0 - - - - - - -
23/11:30pm 11.2 WSW 22 31 1009.8 - 5.0 - - - - - - -
23/11:01pm 11.0 W 20 30 1009.5 - 4.8 - - - - - - -
23/11:00pm 11.1 W 19 26 1009.5 - 4.8 - - - - - - -
23/10:32pm 11.7 W 23 35 1009.2 - 4.4 - - - - - - -
23/10:30pm 11.6 W 22 31 1009.2 - 4.4 - - - - - - -
23/10:02pm 11.3 WSW 23 34 1009.1 - 4.2 - - - - - - -
23/10:00pm 11.7 WSW 22 32 1008.9 - 3.8 - - - - - - -
23/09:30pm 12.1 W 19 28 1008.7 - 3.8 - - - - - - -
23/09:00pm 11.5 WSW 15 19 1008.4 - 3.8 Recent precip. - - - - - -
23/08:30pm 10.2 W 18 31 1008.6 - 3.8 - - - - - - -
23/08:00pm 10.3 WSW 18 33 1008.3 - 3.4 - - - - - - -
23/07:56pm 9.9 SW 22 33 1008.3 - 3.4 - - - - - - -
23/07:30pm 12.1 WSW 21 28 1007.7 - 3.2 - - - - - - -
23/07:00pm 11.5 WSW 20 29 1007.3 - 3.2 - - - - - - -
23/06:54pm 11.1 WSW 19 29 1007.2 - 3.2 - - - - - - -
23/06:30pm 11.2 SW 18 24 1007.0 - 3.2 - - - - - - -
23/06:00pm 11.8 WSW 20 26 1006.5 - 3.0 - - - - - - -
23/05:30pm 12.1 WSW 22 28 1006.1 - 3.0 - - - - - - -
23/05:00pm 12.1 WSW 21 27 1005.9 - 3.0 - - - - - - -
23/04:30pm 11.7 WSW 19 27 1005.8 - 3.0 - - - - - - -
23/04:00pm 11.1 WSW 23 31 1005.4 - 3.0 - - - - - - -
23/03:50pm 11.9 WSW 20 30 1005.2 - 3.0 - - - - - - -
23/03:30pm 10.3 WSW 21 29 1005.3 - 2.8 - - - - - - -
23/03:17pm 10.2 WSW 23 32 1005.2 - 2.4 - - - - - - -
23/03:08pm 11.1 W 15 27 1004.6 - 2.0 - - - - - - -
23/03:00pm 12.3 WSW 13 17 1004.1 - 2.0 - - - - - - -
23/02:30pm 13.2 WSW 15 21 1004.0 - 2.0 - - - - - - -
23/02:00pm 11.5 WSW 11 17 1003.8 - 2.0 - - - - - - -
23/01:30pm 12.0 WSW 17 21 1004.4 - 1.2 - - - - - - -
23/01:00pm 12.1 WSW 11 17 1004.3 - 1.0 - - - - - - -
23/12:30pm 12.7 SW 13 16 1004.3 - 1.0 - - - - - - -
23/12:00pm 12.3 SW 16 20 1004.7 - 1.0 - - - - - - -
23/11:30am 13.4 WSW 12 17 1004.6 - 1.0 - - - - - - -
23/11:00am 13.0 WSW 12 16 1004.6 - 1.0 - - - - - - -
23/10:30am 12.6 WSW 9 13 1004.7 - 0.8 - - - - - - -
23/10:00am 12.1 WSW 14 19 1004.7 - 0.8 - - - - - - -
23/09:30am 12.8 WSW 16 22 1004.4 - 0.4 - - - - - - -
23/09:00am 12.3 W 16 23 1004.3 - 6.0 Rain - - - - - -
23/08:30am 12.1 WSW 20 29 1004.1 - 5.0 - - - - - - -
23/08:17am 12.1 W 27 40 1004.1 - 4.6 - - - - - - -
23/08:12am 11.1 WNW 24 40 1004.1 - 4.2 - - - - - - -
23/08:09am 13.2 WNW 21 35 1003.8 - 3.4 - - - - - - -
23/08:00am 14.0 WNW 19 26 1003.8 - 3.0 - - - - - - -
23/07:34am 14.0 WNW 16 27 1003.5 - 2.8 - - - - - - -
23/07:30am 13.7 WNW 17 23 1003.5 - 2.8 - - - - - - -
23/07:08am 14.2 NW 19 27 1003.9 - 1.6 - - - - - - -
23/07:00am 14.1 NNW 20 28 1003.2 - 1.2 - - - - - - -
23/06:41am 14.9 NW 20 31 1003.5 - 1.0 - - - - - - -
23/06:30am 14.6 NW 19 25 1003.6 - 1.0 - - - - - - -
23/06:00am 14.5 NW 19 24 1003.8 - 1.0 - - - - - - -
23/05:30am 15.0 NW 20 27 1004.0 - 1.0 - - - - - - -
23/05:00am 14.9 NW 19 25 1004.3 - 1.0 - - - - - - -
23/04:30am 14.4 NW 20 28 1004.5 - 1.0 - - - - - - -
23/04:00am 14.5 WNW 20 30 1005.0 - 1.0 - - - - - - -
23/03:30am 14.1 WNW 18 27 1005.5 - 1.0 - - - - - - -
23/03:06am 14.8 NW 22 33 1005.9 - 0.6 - - - - - - -
23/03:00am 14.7 NW 19 26 1005.8 - 0.6 - - - - - - -
23/02:33am 14.9 WNW 23 34 1006.2 - 0.6 - - - - - - -
23/02:30am 14.9 WNW 22 29 1006.1 - 0.6 - - - - - - -
23/02:00am 14.8 WNW 22 28 1006.3 - 0.6 - - - - - - -
23/01:30am 14.6 WNW 18 24 1006.6 - 0.6 - - - - - - -
23/01:00am 14.6 WNW 21 29 1007.1 - 0.6 - - - - - - -
23/12:30am 14.5 NW 17 24 1007.3 - 0.6 - - - - - - -
23/12:00am 14.3 NW 16 23 1007.7 - 0.6 - - - - - - -
 
Date/Time
CST
Temp
°C
Wind Pressure Rain since
9am
mm
Weather Cloud Vis
km
Sea
Height
m
Swell
Dir  Spd
kts
Gust
kts
hPa Trend Height
m
Period
s
Dir
22/11:30pm 14.3 NW 17 23 1008.3 - 0.6 - - - - - - -
22/11:00pm 13.9 NW 16 21 1008.6 - 0.6 - - - - - - -
22/10:31pm 13.9 NW 15 25 1008.8 - 0.6 - - - - - - -
22/10:30pm 14.1 NW 14 19 1008.8 - 0.6 - - - - - - -
22/10:00pm 14.8 NW 16 23 1008.9 - 0.6 - - - - - - -
22/09:30pm 14.3 NW 15 19 1009.1 - 0.6 - - - - - - -
22/09:00pm 14.0 NNW 18 24 1009.3 - 0.6 - - - - - - -
22/08:30pm 14.6 NW 16 22 1009.4 - 0.6 - - - - - - -
22/08:00pm 14.4 NW 14 21 1009.5 - 0.6 - - - - - - -
22/07:30pm 14.6 NW 14 20 1009.5 - 0.6 - - - - - - -
22/07:00pm 14.4 NW 15 19 1009.4 - 0.6 - - - - - - -
22/06:30pm 14.1 NW 14 19 1009.4 - 0.6 - - - - - - -
22/06:00pm 14.3 WNW 16 22 1009.5 - 0.6 - - - - - - -
22/05:30pm 14.5 WNW 16 22 1009.3 - 0.6 - - - - - - -
22/05:00pm 14.6 WNW 15 20 1009.3 - 0.6 - - - - - - -
22/04:30pm 14.3 WNW 14 19 1009.6 - 0.6 - - - - - - -
22/04:00pm 14.1 NW 13 18 1009.7 - 0.6 - - - - - - -
22/03:30pm 14.2 NW 15 19 1009.8 - 0.4 - - - - - - -
22/03:00pm 13.8 NW 12 17 1009.9 - 0.4 Recent precip. - - - - - -

Other Formats:

Comma delimited format used in spreadsheet applications
http://www.bom.gov.au/fwo/IDS60701/IDS60701.94658.axf

JavaScript Object Notation format (JSON) in row-major order
http://www.bom.gov.au/fwo/IDS60701/IDS60701.94658.json